Terminal Aerodrome Forecast
Issued by NWS

Home | Current Version | Previous Version | Text Only | Print | Product List | Glossary On
Versions: 1 2 3 4 5 6 7 8 9 10 11 12 13 14 15 16 17 18 19 20 21 22
000
FTUS43 KMPX 281733
TAFAXN
TAF
KAXN 281733Z 2818/2918 15014KT 3SM BR OVC004
     FM282100 16007KT 2SM BR OVC003
      TEMPO 2823/2902 1SM -FZDZSN
     FM290200 33009KT 2SM BR OVC002
     FM290400 32014G22KT 4SM BR OVC007
     FM290800 33022G30KT P6SM OVC015
     FM291600 33020G26KT P6SM BKN022=

USA.gov is the U.S. government's official web portal to all federal, state and local government web resources and services.